sensor_id;sensor_type;location;lat;lon;timestamp;P1;durP1;ratioP1;P2;durP2;ratioP2
9264;SDS011;4669;49.594;10.958;2023-06-26T04:26:20;7.78;;;6.82;;
9264;SDS011;4669;49.594;10.958;2023-06-26T04:31:22;9.05;;;8.15;;
9264;SDS011;4669;49.594;10.958;2023-06-26T04:36:24;8.43;;;7.60;;
9264;SDS011;4669;49.594;10.958;2023-06-26T04:41:29;8.57;;;7.68;;
9264;SDS011;4669;49.594;10.958;2023-06-26T04:46:31;8.13;;;7.40;;
9264;SDS011;4669;49.594;10.958;2023-06-26T04:51:33;7.90;;;7.05;;
9264;SDS011;4669;49.594;10.958;2023-06-26T04:56:41;8.68;;;7.80;;
9264;SDS011;4669;49.594;10.958;2023-06-26T05:01:47;8.73;;;6.90;;
9264;SDS011;4669;49.594;10.958;2023-06-26T05:06:49;8.18;;;7.03;;
9264;SDS011;4669;49.594;10.958;2023-06-26T05:11:52;8.00;;;7.22;;
9264;SDS011;4669;49.594;10.958;2023-06-26T05:16:54;11.13;;;8.40;;
9264;SDS011;4669;49.594;10.958;2023-06-26T05:21:55;10.52;;;8.63;;
9264;SDS011;4669;49.594;10.958;2023-06-26T05:26:59;9.38;;;7.07;;
9264;SDS011;4669;49.594;10.958;2023-06-26T05:32:01;11.32;;;8.40;;
9264;SDS011;4669;49.594;10.958;2023-06-26T05:37:04;8.93;;;8.02;;
9264;SDS011;4669;49.594;10.958;2023-06-26T05:42:09;8.18;;;7.38;;
9264;SDS011;4669;49.594;10.958;2023-06-26T05:47:12;8.57;;;7.63;;
9264;SDS011;4669;49.594;10.958;2023-06-26T05:52:14;8.13;;;6.80;;
9264;SDS011;4669;49.594;10.958;2023-06-26T05:57:18;11.18;;;7.32;;
9264;SDS011;4669;49.594;10.958;2023-06-26T06:02:20;9.80;;;7.75;;
9264;SDS011;4669;49.594;10.958;2023-06-26T06:07:22;8.07;;;7.28;;
9264;SDS011;4669;49.594;10.958;2023-06-26T06:12:25;8.40;;;7.43;;
9264;SDS011;4669;49.594;10.958;2023-06-26T06:17:27;12.02;;;7.30;;
9264;SDS011;4669;49.594;10.958;2023-06-26T06:22:29;8.55;;;7.60;;
9264;SDS011;4669;49.594;10.958;2023-06-26T06:27:32;9.27;;;7.80;;
9264;SDS011;4669;49.594;10.958;2023-06-26T06:32:34;10.50;;;7.32;;
9264;SDS011;4669;49.594;10.958;2023-06-26T06:37:36;8.57;;;7.70;;
9264;SDS011;4669;49.594;10.958;2023-06-26T06:42:40;10.07;;;7.05;;
9264;SDS011;4669;49.594;10.958;2023-06-26T06:47:42;8.35;;;7.38;;
9264;SDS011;4669;49.594;10.958;2023-06-26T06:52:43;7.72;;;6.93;;
9264;SDS011;4669;49.594;10.958;2023-06-26T06:57:46;7.85;;;7.05;;
9264;SDS011;4669;49.594;10.958;2023-06-26T07:02:48;7.93;;;7.15;;
9264;SDS011;4669;49.594;10.958;2023-06-26T07:07:50;11.13;;;7.18;;
9264;SDS011;4669;49.594;10.958;2023-06-26T07:12:53;9.60;;;7.32;;
9264;SDS011;4669;49.594;10.958;2023-06-26T07:17:55;11.00;;;7.30;;
9264;SDS011;4669;49.594;10.958;2023-06-26T07:22:57;8.73;;;7.20;;
9264;SDS011;4669;49.594;10.958;2023-06-26T07:28:00;7.43;;;6.43;;
9264;SDS011;4669;49.594;10.958;2023-06-26T07:33:02;12.32;;;7.50;;
9264;SDS011;4669;49.594;10.958;2023-06-26T07:38:04;8.70;;;7.50;;
9264;SDS011;4669;49.594;10.958;2023-06-26T07:43:07;11.40;;;7.80;;
9264;SDS011;4669;49.594;10.958;2023-06-26T07:48:09;9.98;;;7.18;;
9264;SDS011;4669;49.594;10.958;2023-06-26T07:53:11;8.98;;;8.07;;
9264;SDS011;4669;49.594;10.958;2023-06-26T07:58:14;8.32;;;7.53;;
9264;SDS011;4669;49.594;10.958;2023-06-26T08:03:16;8.15;;;7.35;;
9264;SDS011;4669;49.594;10.958;2023-06-26T08:08:17;8.30;;;7.50;;
9264;SDS011;4669;49.594;10.958;2023-06-26T08:13:21;9.52;;;7.90;;
9264;SDS011;4669;49.594;10.958;2023-06-26T08:18:22;8.30;;;7.55;;
9264;SDS011;4669;49.594;10.958;2023-06-26T08:23:24;9.65;;;7.43;;
9264;SDS011;4669;49.594;10.958;2023-06-26T08:28:27;8.02;;;7.22;;
9264;SDS011;4669;49.594;10.958;2023-06-26T08:33:29;11.57;;;8.10;;
9264;SDS011;4669;49.594;10.958;2023-06-26T08:38:31;9.95;;;7.70;;
9264;SDS011;4669;49.594;10.958;2023-06-26T08:43:34;8.73;;;7.80;;
9264;SDS011;4669;49.594;10.958;2023-06-26T08:48:37;8.57;;;7.78;;
9264;SDS011;4669;49.594;10.958;2023-06-26T08:53:41;8.93;;;8.02;;
9264;SDS011;4669;49.594;10.958;2023-06-26T08:58:51;9.63;;;7.25;;
9264;SDS011;4669;49.594;10.958;2023-06-26T09:03:53;8.40;;;7.47;;
9264;SDS011;4669;49.594;10.958;2023-06-26T09:08:55;17.40;;;7.53;;
9264;SDS011;4669;49.594;10.958;2023-06-26T09:13:59;9.98;;;7.80;;
9264;SDS011;4669;49.594;10.958;2023-06-26T09:19:01;9.77;;;7.40;;
9264;SDS011;4669;49.594;10.958;2023-06-26T09:24:03;9.50;;;7.60;;
9264;SDS011;4669;49.594;10.958;2023-06-26T09:29:08;8.60;;;6.53;;
9264;SDS011;4669;49.594;10.958;2023-06-26T09:34:10;7.97;;;7.18;;
9264;SDS011;4669;49.594;10.958;2023-06-26T09:39:12;7.88;;;7.03;;
9264;SDS011;4669;49.594;10.958;2023-06-26T09:44:16;7.78;;;7.10;;
9264;SDS011;4669;49.594;10.958;2023-06-26T09:49:19;8.25;;;7.35;;
9264;SDS011;4669;49.594;10.958;2023-06-26T09:54:21;7.43;;;6.72;;
9264;SDS011;4669;49.594;10.958;2023-06-26T09:59:26;7.97;;;7.18;;
9264;SDS011;4669;49.594;10.958;2023-06-26T10:04:29;10.18;;;7.57;;
9264;SDS011;4669;49.594;10.958;2023-06-26T10:09:31;7.25;;;6.55;;
9264;SDS011;4669;49.594;10.958;2023-06-26T10:14:35;10.80;;;6.50;;
9264;SDS011;4669;49.594;10.958;2023-06-26T10:19:39;7.15;;;6.45;;
9264;SDS011;4669;49.594;10.958;2023-06-26T10:24:45;7.97;;;7.18;;
9264;SDS011;4669;49.594;10.958;2023-06-26T10:29:51;10.75;;;9.15;;
9264;SDS011;4669;49.594;10.958;2023-06-26T10:34:55;7.90;;;7.20;;
9264;SDS011;4669;49.594;10.958;2023-06-26T10:39:59;7.88;;;7.07;;
9264;SDS011;4669;49.594;10.958;2023-06-26T10:45:09;7.75;;;6.65;;
9264;SDS011;4669;49.594;10.958;2023-06-26T10:50:16;7.65;;;6.95;;
9264;SDS011;4669;49.594;10.958;2023-06-26T10:55:23;7.05;;;6.45;;
9264;SDS011;4669;49.594;10.958;2023-06-26T11:00:30;7.13;;;6.50;;
9264;SDS011;4669;49.594;10.958;2023-06-26T11:05:32;8.60;;;6.57;;
9264;SDS011;4669;49.594;10.958;2023-06-26T11:15:53;7.47;;;6.15;;
9264;SDS011;4669;49.594;10.958;2023-06-26T11:21:03;6.90;;;6.30;;
9264;SDS011;4669;49.594;10.958;2023-06-26T11:26:12;6.68;;;5.80;;
9264;SDS011;4669;49.594;10.958;2023-06-26T11:31:27;7.00;;;6.40;;
9264;SDS011;4669;49.594;10.958;2023-06-26T11:36:30;6.88;;;6.28;;
9264;SDS011;4669;49.594;10.958;2023-06-26T11:41:34;7.35;;;5.47;;
9264;SDS011;4669;49.594;10.958;2023-06-26T11:46:39;7.03;;;5.60;;
9264;SDS011;4669;49.594;10.958;2023-06-26T11:51:41;7.40;;;5.35;;
9264;SDS011;4669;49.594;10.958;2023-06-26T11:56:43;6.47;;;5.88;;
9264;SDS011;4669;49.594;10.958;2023-06-26T12:01:54;5.20;;;4.80;;
9264;SDS011;4669;49.594;10.958;2023-06-26T12:06:55;4.78;;;4.38;;
9264;SDS011;4669;49.594;10.958;2023-06-26T12:11:58;5.63;;;5.07;;
9264;SDS011;4669;49.594;10.958;2023-06-26T12:17:08;5.90;;;5.35;;
9264;SDS011;4669;49.594;10.958;2023-06-26T12:22:11;5.50;;;5.10;;
9264;SDS011;4669;49.594;10.958;2023-06-26T12:27:14;5.20;;;4.80;;
9264;SDS011;4669;49.594;10.958;2023-06-26T12:32:18;5.50;;;5.00;;
9264;SDS011;4669;49.594;10.958;2023-06-26T12:37:20;6.97;;;4.90;;
9264;SDS011;4669;49.594;10.958;2023-06-26T12:42:22;6.15;;;5.40;;
9264;SDS011;4669;49.594;10.958;2023-06-26T12:47:26;6.00;;;5.32;;
9264;SDS011;4669;49.594;10.958;2023-06-26T12:52:30;5.80;;;5.30;;
9264;SDS011;4669;49.594;10.958;2023-06-26T12:57:32;5.68;;;5.18;;
9264;SDS011;4669;49.594;10.958;2023-06-26T13:02:35;6.00;;;5.40;;
9264;SDS011;4669;49.594;10.958;2023-06-26T13:07:37;5.68;;;5.13;;
9264;SDS011;4669;49.594;10.958;2023-06-26T13:12:39;7.15;;;5.10;;
9264;SDS011;4669;49.594;10.958;2023-06-26T13:17:42;5.35;;;4.95;;
9264;SDS011;4669;49.594;10.958;2023-06-26T13:22:44;9.27;;;6.07;;
9264;SDS011;4669;49.594;10.958;2023-06-26T13:27:46;8.10;;;5.88;;
9264;SDS011;4669;49.594;10.958;2023-06-26T13:32:50;6.35;;;5.60;;
9264;SDS011;4669;49.594;10.958;2023-06-26T13:37:52;6.75;;;5.68;;
9264;SDS011;4669;49.594;10.958;2023-06-26T13:42:54;6.55;;;5.82;;
9264;SDS011;4669;49.594;10.958;2023-06-26T13:47:58;7.32;;;6.63;;
9264;SDS011;4669;49.594;10.958;2023-06-26T13:53:00;5.93;;;5.30;;
9264;SDS011;4669;49.594;10.958;2023-06-26T13:58:03;7.70;;;5.68;;
9264;SDS011;4669;49.594;10.958;2023-06-26T14:03:07;6.40;;;5.90;;
9264;SDS011;4669;49.594;10.958;2023-06-26T14:08:09;8.38;;;5.70;;
9264;SDS011;4669;49.594;10.958;2023-06-26T14:13:11;7.15;;;5.78;;
9264;SDS011;4669;49.594;10.958;2023-06-26T14:18:16;6.88;;;6.10;;
9264;SDS011;4669;49.594;10.958;2023-06-26T14:23:18;13.75;;;11.05;;
9264;SDS011;4669;49.594;10.958;2023-06-26T14:28:20;6.60;;;5.80;;
9264;SDS011;4669;49.594;10.958;2023-06-26T14:33:23;8.35;;;6.40;;
9264;SDS011;4669;49.594;10.958;2023-06-26T14:38:25;6.75;;;6.15;;
9264;SDS011;4669;49.594;10.958;2023-06-26T14:43:27;6.43;;;5.90;;
9264;SDS011;4669;49.594;10.958;2023-06-26T14:48:30;6.78;;;6.18;;
9264;SDS011;4669;49.594;10.958;2023-06-26T14:53:32;6.85;;;6.20;;
9264;SDS011;4669;49.594;10.958;2023-06-26T14:58:34;8.15;;;6.68;;
9264;SDS011;4669;49.594;10.958;2023-06-26T15:03:37;7.57;;;6.93;;
9264;SDS011;4669;49.594;10.958;2023-06-26T15:08:38;9.13;;;6.47;;
9264;SDS011;4669;49.594;10.958;2023-06-26T15:13:40;8.45;;;7.13;;
9264;SDS011;4669;49.594;10.958;2023-06-26T15:18:44;9.52;;;8.52;;
9264;SDS011;4669;49.594;10.958;2023-06-26T15:23:46;10.90;;;8.15;;
9264;SDS011;4669;49.594;10.958;2023-06-26T15:28:49;10.07;;;7.32;;
9264;SDS011;4669;49.594;10.958;2023-06-26T15:33:52;8.55;;;7.75;;
9264;SDS011;4669;49.594;10.958;2023-06-26T15:38:53;8.27;;;7.43;;
9264;SDS011;4669;49.594;10.958;2023-06-26T15:43:55;8.77;;;7.47;;
9264;SDS011;4669;49.594;10.958;2023-06-26T15:48:58;9.50;;;8.10;;
9264;SDS011;4669;49.594;10.958;2023-06-26T15:54:00;9.15;;;8.10;;
9264;SDS011;4669;49.594;10.958;2023-06-26T15:59:02;14.45;;;12.90;;
9264;SDS011;4669;49.594;10.958;2023-06-26T16:04:05;8.15;;;7.40;;
9264;SDS011;4669;49.594;10.958;2023-06-26T16:09:07;9.13;;;7.60;;
9264;SDS011;4669;49.594;10.958;2023-06-26T16:14:09;8.10;;;6.75;;
9264;SDS011;4669;49.594;10.958;2023-06-26T16:19:12;8.32;;;7.32;;
9264;SDS011;4669;49.594;10.958;2023-06-26T16:24:14;7.70;;;6.93;;
9264;SDS011;4669;49.594;10.958;2023-06-26T16:29:16;7.95;;;7.07;;
9264;SDS011;4669;49.594;10.958;2023-06-26T16:34:19;7.82;;;7.03;;
9264;SDS011;4669;49.594;10.958;2023-06-26T16:39:21;7.80;;;7.00;;
9264;SDS011;4669;49.594;10.958;2023-06-26T16:44:24;7.13;;;6.53;;
9264;SDS011;4669;49.594;10.958;2023-06-26T16:49:28;7.93;;;7.10;;
9264;SDS011;4669;49.594;10.958;2023-06-26T16:54:30;10.50;;;6.45;;
9264;SDS011;4669;49.594;10.958;2023-06-26T16:59:31;6.53;;;5.85;;
9264;SDS011;4669;49.594;10.958;2023-06-26T17:04:35;7.32;;;6.47;;
9264;SDS011;4669;49.594;10.958;2023-06-26T17:09:36;8.55;;;6.13;;
9264;SDS011;4669;49.594;10.958;2023-06-26T17:14:38;6.57;;;5.88;;
9264;SDS011;4669;49.594;10.958;2023-06-26T17:19:42;10.00;;;6.57;;
9264;SDS011;4669;49.594;10.958;2023-06-26T17:24:43;7.13;;;5.80;;
9264;SDS011;4669;49.594;10.958;2023-06-26T17:29:45;12.75;;;6.20;;
9264;SDS011;4669;49.594;10.958;2023-06-26T17:34:48;7.72;;;6.07;;
9264;SDS011;4669;49.594;10.958;2023-06-26T17:39:51;10.60;;;6.03;;
9264;SDS011;4669;49.594;10.958;2023-06-26T17:44:54;10.70;;;6.63;;
9264;SDS011;4669;49.594;10.958;2023-06-26T17:49:57;7.00;;;6.28;;
9264;SDS011;4669;49.594;10.958;2023-06-26T17:54:59;8.35;;;6.50;;
9264;SDS011;4669;49.594;10.958;2023-06-26T18:00:01;7.20;;;6.47;;
9264;SDS011;4669;49.594;10.958;2023-06-26T18:05:13;8.70;;;6.40;;
9264;SDS011;4669;49.594;10.958;2023-06-26T18:10:15;24.15;;;19.15;;
9264;SDS011;4669;49.594;10.958;2023-06-26T18:15:17;7.22;;;6.13;;
9264;SDS011;4669;49.594;10.958;2023-06-26T18:20:20;10.50;;;6.50;;
9264;SDS011;4669;49.594;10.958;2023-06-26T18:25:22;8.95;;;6.05;;
9264;SDS011;4669;49.594;10.958;2023-06-26T18:30:24;7.32;;;6.20;;
9264;SDS011;4669;49.594;10.958;2023-06-26T18:35:27;8.45;;;5.90;;
9264;SDS011;4669;49.594;10.958;2023-06-26T18:40:29;6.95;;;5.00;;
9264;SDS011;4669;49.594;10.958;2023-06-26T18:45:30;5.90;;;4.97;;
9264;SDS011;4669;49.594;10.958;2023-06-26T18:50:34;5.60;;;4.60;;
9264;SDS011;4669;49.594;10.958;2023-06-26T18:55:36;9.57;;;4.68;;
9264;SDS011;4669;49.594;10.958;2023-06-26T19:00:38;7.88;;;4.80;;
9264;SDS011;4669;49.594;10.958;2023-06-26T19:05:41;8.35;;;4.20;;
9264;SDS011;4669;49.594;10.958;2023-06-26T19:10:43;9.27;;;3.95;;
9264;SDS011;4669;49.594;10.958;2023-06-26T19:15:46;7.20;;;3.67;;
9264;SDS011;4669;49.594;10.958;2023-06-26T19:20:49;8.35;;;3.20;;
9264;SDS011;4669;49.594;10.958;2023-06-26T19:25:51;8.15;;;3.65;;
9264;SDS011;4669;49.594;10.958;2023-06-26T19:30:53;4.03;;;3.08;;
9264;SDS011;4669;49.594;10.958;2023-06-26T19:35:56;3.75;;;3.00;;
9264;SDS011;4669;49.594;10.958;2023-06-26T19:40:59;3.58;;;2.65;;
9264;SDS011;4669;49.594;10.958;2023-06-26T19:46:00;4.53;;;2.38;;
9264;SDS011;4669;49.594;10.958;2023-06-26T19:51:04;4.43;;;2.85;;
9264;SDS011;4669;49.594;10.958;2023-06-26T19:56:06;5.32;;;2.78;;
9264;SDS011;4669;49.594;10.958;2023-06-26T20:01:08;4.75;;;2.53;;
9264;SDS011;4669;49.594;10.958;2023-06-26T20:06:11;6.80;;;2.70;;
9264;SDS011;4669;49.594;10.958;2023-06-26T20:11:15;3.38;;;2.13;;
9264;SDS011;4669;49.594;10.958;2023-06-26T20:16:16;6.22;;;2.63;;
9264;SDS011;4669;49.594;10.958;2023-06-26T20:21:20;5.63;;;2.60;;
9264;SDS011;4669;49.594;10.958;2023-06-26T20:26:22;3.83;;;1.90;;
9264;SDS011;4669;49.594;10.958;2023-06-26T20:31:23;3.47;;;2.05;;
9264;SDS011;4669;49.594;10.958;2023-06-26T20:36:27;8.13;;;2.33;;
9264;SDS011;4669;49.594;10.958;2023-06-26T20:41:29;4.15;;;2.55;;
9264;SDS011;4669;49.594;10.958;2023-06-26T20:46:31;3.33;;;2.20;;
9264;SDS011;4669;49.594;10.958;2023-06-26T20:51:37;3.10;;;2.28;;
9264;SDS011;4669;49.594;10.958;2023-06-26T20:56:39;5.57;;;2.30;;
9264;SDS011;4669;49.594;10.958;2023-06-26T21:01:41;4.07;;;2.38;;
9264;SDS011;4669;49.594;10.958;2023-06-26T21:06:44;4.28;;;2.33;;
9264;SDS011;4669;49.594;10.958;2023-06-26T21:11:47;3.78;;;2.00;;
9264;SDS011;4669;49.594;10.958;2023-06-26T21:16:48;6.18;;;2.40;;
9264;SDS011;4669;49.594;10.958;2023-06-26T21:21:52;3.55;;;2.42;;
9264;SDS011;4669;49.594;10.958;2023-06-26T21:26:53;4.32;;;2.28;;
9264;SDS011;4669;49.594;10.958;2023-06-26T21:31:55;6.70;;;2.92;;
9264;SDS011;4669;49.594;10.958;2023-06-26T21:36:59;8.00;;;2.78;;
9264;SDS011;4669;49.594;10.958;2023-06-26T21:42:01;4.13;;;2.70;;
9264;SDS011;4669;49.594;10.958;2023-06-26T21:47:03;3.38;;;2.22;;
9264;SDS011;4669;49.594;10.958;2023-06-26T21:52:07;4.57;;;2.38;;
9264;SDS011;4669;49.594;10.958;2023-06-26T21:57:09;4.93;;;2.05;;
